createdAt,value
2023-03-26T00:01:33.647Z,71.49
2023-03-26T00:04:02.272Z,71.32
2023-03-26T00:06:34.936Z,72.10
2023-03-26T00:09:03.417Z,72.03
2023-03-26T00:11:31.799Z,72.49
2023-03-26T00:13:59.844Z,71.93
2023-03-26T00:16:29.953Z,72.08
2023-03-26T00:18:59.955Z,72.15
2023-03-26T00:21:30.350Z,72.71
2023-03-26T00:24:04.486Z,72.24
2023-03-26T00:26:33.768Z,71.94
2023-03-26T00:29:04.043Z,72.52
2023-03-26T00:31:32.825Z,72.21
2023-03-26T00:34:03.693Z,71.95
2023-03-26T00:36:32.332Z,72.09
2023-03-26T00:39:05.180Z,71.69
2023-03-26T00:41:37.037Z,71.84
2023-03-26T00:44:05.900Z,71.89
2023-03-26T00:46:33.907Z,71.41
2023-03-26T00:49:03.846Z,71.09
2023-03-26T00:51:33.906Z,71.40
2023-03-26T00:54:03.471Z,71.77
2023-03-26T00:56:31.530Z,71.55
2023-03-26T00:59:00.252Z,71.94
2023-03-26T01:01:30.627Z,71.93
2023-03-26T01:04:20.169Z,72.27
2023-03-26T01:06:48.777Z,71.99
2023-03-26T01:09:20.044Z,72.38
2023-03-26T01:11:49.923Z,72.22
2023-03-26T01:14:20.744Z,72.11
2023-03-26T01:16:53.055Z,72.47
2023-03-26T01:19:26.938Z,72.13
2023-03-26T01:21:55.084Z,72.29
2023-03-26T01:24:24.454Z,72.52
2023-03-26T01:27:06.025Z,72.90
2023-03-26T01:29:42.933Z,73.70
2023-03-26T01:32:23.248Z,73.54
2023-03-26T01:35:06.345Z,73.78
2023-03-26T01:37:41.557Z,74.24
2023-03-26T01:40:18.695Z,73.66
2023-03-26T01:42:53.205Z,73.61
2023-03-26T01:45:25.693Z,75.01
2023-03-26T01:47:54.618Z,74.67
2023-03-26T01:50:22.740Z,74.92
2023-03-26T01:52:50.925Z,74.76
2023-03-26T01:55:20.878Z,74.44
2023-03-26T01:57:56.881Z,75.00
2023-03-26T02:00:31.070Z,75.10
2023-03-26T02:03:23.714Z,75.08
2023-03-26T02:05:58.669Z,75.30
2023-03-26T02:08:35.772Z,75.62
2023-03-26T02:11:11.545Z,75.31
2023-03-26T02:13:40.556Z,75.68
2023-03-26T02:16:11.839Z,75.37
2023-03-26T02:18:39.987Z,75.07
2023-03-26T02:21:12.350Z,75.39
2023-03-26T02:23:46.896Z,75.35
2023-03-26T02:26:18.872Z,75.63
2023-03-26T02:28:58.757Z,75.42
2023-03-26T02:31:27.327Z,75.50
2023-03-26T02:33:56.691Z,75.32
2023-03-26T02:36:27.339Z,75.20
2023-03-26T02:39:00.323Z,75.39
2023-03-26T02:41:32.420Z,75.25
2023-03-26T02:44:04.920Z,75.42
2023-03-26T02:46:51.827Z,75.28
2023-03-26T02:49:38.388Z,75.34
2023-03-26T02:52:07.393Z,75.01
2023-03-26T02:54:37.136Z,75.17
2023-03-26T02:57:25.883Z,74.93
2023-03-26T03:00:23.653Z,74.92
2023-03-26T03:03:11.852Z,75.16
2023-03-26T03:05:59.096Z,75.45
2023-03-26T03:08:34.667Z,75.35
2023-03-26T03:11:24.765Z,74.97
2023-03-26T03:13:55.504Z,75.51
2023-03-26T03:16:26.594Z,75.83
2023-03-26T03:18:58.173Z,76.01
2023-03-26T03:21:37.852Z,75.67
2023-03-26T03:24:07.252Z,75.56
2023-03-26T03:26:38.781Z,75.89
2023-03-26T03:29:34.096Z,75.90
2023-03-26T03:32:31.043Z,75.82
2023-03-26T03:35:03.040Z,75.63
2023-03-26T03:37:31.336Z,75.46
2023-03-26T03:40:00.597Z,75.69
2023-03-26T03:42:32.296Z,75.66
2023-03-26T03:45:06.491Z,75.60
2023-03-26T03:48:04.767Z,75.59
2023-03-26T03:50:42.179Z,75.25
2023-03-26T03:53:26.092Z,75.54
2023-03-26T03:55:56.162Z,75.70
2023-03-26T03:58:31.095Z,75.83
2023-03-26T04:01:08.336Z,75.68
2023-03-26T04:03:54.795Z,75.69
2023-03-26T04:06:26.688Z,75.21
2023-03-26T04:08:55.357Z,75.28
2023-03-26T04:11:23.702Z,75.45
2023-03-26T04:14:14.413Z,75.69
2023-03-26T04:17:13.637Z,75.82
2023-03-26T04:19:42.113Z,75.65
2023-03-26T04:22:11.943Z,75.57
2023-03-26T04:25:02.431Z,75.45
2023-03-26T04:27:55.741Z,75.07
2023-03-26T04:30:44.964Z,75.02
2023-03-26T04:33:31.696Z,75.16
2023-03-26T04:36:03.239Z,75.14
2023-03-26T04:38:41.470Z,74.99
2023-03-26T04:41:12.795Z,74.75
2023-03-26T04:43:50.774Z,74.66
2023-03-26T04:46:25.692Z,74.47
2023-03-26T04:49:06.544Z,74.27
2023-03-26T04:51:39.494Z,74.25
2023-03-26T04:54:21.704Z,74.06
2023-03-26T04:56:59.766Z,73.95
2023-03-26T04:59:37.218Z,73.79
2023-03-26T05:02:09.658Z,73.68
2023-03-26T05:04:50.514Z,73.70
2023-03-26T05:07:22.445Z,73.67
2023-03-26T05:09:53.872Z,73.79
2023-03-26T05:12:41.597Z,73.72
2023-03-26T05:15:14.277Z,73.99
2023-03-26T05:18:00.887Z,73.49
2023-03-26T05:20:38.788Z,73.71
2023-03-26T05:23:09.310Z,73.61
2023-03-26T05:25:39.659Z,73.18
2023-03-26T05:28:15.979Z,73.30
2023-03-26T05:30:54.591Z,73.30
2023-03-26T05:33:25.429Z,73.50
2023-03-26T05:36:21.400Z,72.94
2023-03-26T05:38:58.231Z,72.85
2023-03-26T05:41:50.077Z,72.69
2023-03-26T05:44:19.624Z,73.32
2023-03-26T05:46:47.792Z,73.20
2023-03-26T05:49:22.242Z,72.62
2023-03-26T05:51:53.238Z,72.54
2023-03-26T05:54:36.278Z,71.96
2023-03-26T05:57:23.967Z,71.89
2023-03-26T06:00:12.346Z,72.22
2023-03-26T06:02:46.949Z,72.11
2023-03-26T06:05:50.391Z,72.24
2023-03-26T06:08:23.720Z,72.66
2023-03-26T06:10:59.793Z,72.14
2023-03-26T06:13:30.588Z,72.35
2023-03-26T06:15:59.099Z,72.60
2023-03-26T06:18:38.803Z,72.09
2023-03-26T06:21:29.255Z,72.09
2023-03-26T06:24:03.713Z,72.48
2023-03-26T06:26:45.197Z,72.21
2023-03-26T06:29:39.308Z,72.58
2023-03-26T06:32:27.142Z,72.44
2023-03-26T06:35:01.061Z,72.81
2023-03-26T06:37:29.718Z,72.28
2023-03-26T06:40:03.206Z,72.95
2023-03-26T06:43:09.892Z,73.19
2023-03-26T06:45:52.098Z,72.38
2023-03-26T06:48:35.584Z,72.06
2023-03-26T06:51:18.668Z,71.97
2023-03-26T06:54:05.895Z,72.40
2023-03-26T06:56:56.313Z,72.41
2023-03-26T06:59:36.612Z,72.30
2023-03-26T07:02:23.340Z,70.86
2023-03-26T07:05:26.565Z,70.31
2023-03-26T07:08:22.918Z,70.20
2023-03-26T07:11:11.250Z,70.42
2023-03-26T07:13:57.316Z,70.71
2023-03-26T07:16:46.668Z,70.62
2023-03-26T07:19:37.677Z,71.31
2023-03-26T07:22:06.736Z,71.24
2023-03-26T07:24:54.206Z,70.59
2023-03-26T07:27:53.526Z,71.16
2023-03-26T07:30:43.175Z,71.09
2023-03-26T07:33:31.922Z,71.42
2023-03-26T07:36:25.065Z,71.56
2023-03-26T07:39:34.160Z,71.36
2023-03-26T07:42:41.511Z,72.13
2023-03-26T07:45:39.636Z,71.91
2023-03-26T07:48:25.567Z,71.49
2023-03-26T07:51:09.743Z,71.42
2023-03-26T07:53:52.726Z,71.84
2023-03-26T07:56:44.237Z,71.81
2023-03-26T07:59:35.597Z,71.94
2023-03-26T08:02:43.148Z,72.24
2023-03-26T08:05:54.198Z,72.91
2023-03-26T08:08:40.778Z,71.96
2023-03-26T08:11:40.388Z,72.82
2023-03-26T08:14:22.763Z,73.18
2023-03-26T08:16:56.071Z,73.04
2023-03-26T08:19:42.341Z,72.96
2023-03-26T08:22:16.897Z,72.71
2023-03-26T08:24:57.317Z,73.04
2023-03-26T08:27:37.744Z,72.68
2023-03-26T08:30:11.931Z,72.39
2023-03-26T08:32:40.993Z,72.40
2023-03-26T08:35:14.500Z,72.38
2023-03-26T08:37:45.422Z,72.44
2023-03-26T08:40:19.741Z,72.35
2023-03-26T08:43:18.785Z,72.44
2023-03-26T08:46:12.421Z,72.62
2023-03-26T08:49:04.437Z,72.12
2023-03-26T08:52:10.866Z,72.03
2023-03-26T08:55:04.322Z,72.73
2023-03-26T08:57:54.623Z,72.86
2023-03-26T09:00:41.529Z,72.99
2023-03-26T09:03:37.080Z,72.75
2023-03-26T09:06:41.667Z,72.79
2023-03-26T09:09:30.097Z,72.87
2023-03-26T09:12:44.546Z,73.26
2023-03-26T09:15:46.990Z,73.55
2023-03-26T09:18:59.461Z,73.80
2023-03-26T09:21:43.116Z,73.82
2023-03-26T09:25:02.565Z,73.35
2023-03-26T09:27:40.911Z,73.77
2023-03-26T09:30:38.568Z,74.15
2023-03-26T09:33:29.148Z,74.21
2023-03-26T09:36:16.782Z,73.82
2023-03-26T09:38:46.249Z,74.44
2023-03-26T09:41:19.319Z,74.12
2023-03-26T09:44:31.891Z,74.16
2023-03-26T09:47:23.434Z,74.44
2023-03-26T09:50:00.571Z,74.28
2023-03-26T09:52:50.382Z,74.13
2023-03-26T09:55:35.738Z,73.66
2023-03-26T09:58:22.912Z,74.73
2023-03-26T10:01:05.522Z,74.42
2023-03-26T10:03:53.111Z,74.87
2023-03-26T10:06:34.448Z,75.02
2023-03-26T10:09:21.993Z,75.11
2023-03-26T10:12:02.902Z,75.37
2023-03-26T10:14:39.958Z,75.12
2023-03-26T10:17:26.469Z,75.46
2023-03-26T10:20:09.587Z,75.35
2023-03-26T10:22:47.792Z,75.49
2023-03-26T10:25:37.913Z,75.40
2023-03-26T10:28:27.241Z,75.06
2023-03-26T10:31:19.608Z,75.19
2023-03-26T10:34:01.614Z,74.87
2023-03-26T10:36:34.138Z,74.60
2023-03-26T10:39:37.666Z,74.30
2023-03-26T10:42:41.709Z,74.39
2023-03-26T10:45:32.462Z,74.31
2023-03-26T10:48:18.213Z,74.31
2023-03-26T10:51:18.892Z,74.92
2023-03-26T10:53:53.227Z,73.84
2023-03-26T10:56:26.681Z,73.75
2023-03-26T10:58:56.925Z,74.15
2023-03-26T11:01:37.205Z,74.28
2023-03-26T11:04:19.725Z,74.30
2023-03-26T11:06:55.738Z,74.14
2023-03-26T11:09:34.821Z,73.77
2023-03-26T11:12:26.868Z,73.51
2023-03-26T11:15:12.932Z,73.19
2023-03-26T11:17:50.797Z,73.18
2023-03-26T11:20:26.321Z,73.41
2023-03-26T11:23:13.584Z,72.85
2023-03-26T11:26:08.370Z,72.11
2023-03-26T11:29:03.764Z,72.00
2023-03-26T11:32:02.243Z,72.25
2023-03-26T11:34:37.124Z,71.84
2023-03-26T11:37:09.471Z,72.04
2023-03-26T11:39:47.437Z,72.18
2023-03-26T11:42:19.313Z,72.02
2023-03-26T11:44:54.265Z,71.89
2023-03-26T11:47:25.997Z,72.36
2023-03-26T11:49:58.748Z,72.45
2023-03-26T11:52:27.646Z,72.40
2023-03-26T11:54:58.531Z,72.26
2023-03-26T11:57:31.213Z,72.10
2023-03-26T12:00:08.335Z,72.17
2023-03-26T12:02:41.948Z,72.32
2023-03-26T12:05:18.095Z,72.27
2023-03-26T12:07:51.336Z,72.31
2023-03-26T12:10:29.507Z,72.06
2023-03-26T12:13:01.555Z,72.62
2023-03-26T12:15:32.101Z,72.68
2023-03-26T12:18:18.866Z,72.28
2023-03-26T12:20:48.220Z,72.03
2023-03-26T12:23:37.699Z,72.26
2023-03-26T12:26:15.171Z,72.99
2023-03-26T12:28:50.474Z,72.13
2023-03-26T12:31:21.543Z,72.03
2023-03-26T12:34:10.231Z,72.24
2023-03-26T12:36:39.141Z,71.98
2023-03-26T12:40:07.250Z,72.28
2023-03-26T12:44:49.265Z,72.63
2023-03-26T12:45:25.611Z,72.33
2023-03-26T12:48:04.104Z,72.68
2023-03-26T12:50:50.660Z,73.54
2023-03-26T12:53:34.835Z,72.76
2023-03-26T12:56:15.564Z,73.10
2023-03-26T12:59:21.834Z,73.20
2023-03-26T13:02:01.327Z,73.39
2023-03-26T13:05:02.250Z,72.97
2023-03-26T13:07:48.433Z,73.11
2023-03-26T13:10:46.409Z,73.15
2023-03-26T13:13:34.995Z,73.72
2023-03-26T13:16:10.611Z,73.48
2023-03-26T13:18:48.601Z,73.62
2023-03-26T13:21:26.727Z,73.22
2023-03-26T13:24:03.520Z,73.75
2023-03-26T13:26:47.551Z,73.42
2023-03-26T13:29:27.037Z,73.98
2023-03-26T13:32:05.030Z,73.42
2023-03-26T13:34:42.543Z,73.49
2023-03-26T13:37:18.793Z,72.77
2023-03-26T13:39:57.131Z,73.04
2023-03-26T13:42:37.958Z,73.10
2023-03-26T13:45:18.315Z,73.29
2023-03-26T13:47:51.060Z,73.29
2023-03-26T13:50:26.172Z,73.31
2023-03-26T13:52:59.065Z,73.35
2023-03-26T13:55:30.847Z,73.54
2023-03-26T13:58:05.077Z,72.81
2023-03-26T14:00:48.841Z,73.24
2023-03-26T14:03:22.774Z,73.90
2023-03-26T14:05:56.978Z,73.32
2023-03-26T14:08:32.984Z,73.73
2023-03-26T14:11:10.748Z,73.72
2023-03-26T14:13:46.192Z,73.63
2023-03-26T14:16:19.289Z,74.25
2023-03-26T14:18:53.674Z,74.41
2023-03-26T14:21:51.848Z,74.07
2023-03-26T14:24:46.108Z,75.14
2023-03-26T14:27:34.163Z,74.80
2023-03-26T14:30:44.134Z,75.20
2023-03-26T14:33:34.202Z,75.20
2023-03-26T14:36:11.363Z,75.46
2023-03-26T14:39:06.546Z,75.35
2023-03-26T14:41:43.304Z,75.21
2023-03-26T14:44:48.184Z,75.13
2023-03-26T14:47:20.118Z,75.17
2023-03-26T14:50:09.719Z,74.58
2023-03-26T14:52:47.820Z,74.56
2023-03-26T14:55:30.038Z,74.58
2023-03-26T14:58:18.319Z,74.37
2023-03-26T15:01:16.000Z,75.01
2023-03-26T15:04:20.562Z,74.41
2023-03-26T15:07:18.903Z,75.16
2023-03-26T15:10:32.220Z,75.34
2023-03-26T15:13:32.577Z,75.49
2023-03-26T15:16:14.609Z,76.06
2023-03-26T15:19:25.643Z,76.31
2023-03-26T15:22:38.906Z,76.12
2023-03-26T15:25:49.092Z,75.93
2023-03-26T15:28:44.422Z,76.30
2023-03-26T15:31:37.312Z,75.83
2023-03-26T15:34:44.045Z,76.42
2023-03-26T15:37:41.713Z,76.56
2023-03-26T15:40:40.487Z,75.92
2023-03-26T15:43:12.986Z,75.25
2023-03-26T15:45:44.859Z,75.90
2023-03-26T15:48:30.086Z,76.00
2023-03-26T15:51:08.920Z,76.10
2023-03-26T15:53:44.807Z,76.50
2023-03-26T15:56:27.908Z,76.33
2023-03-26T15:59:07.292Z,76.57
2023-03-26T16:02:03.951Z,76.66
2023-03-26T16:04:50.723Z,76.45
2023-03-26T16:07:44.264Z,76.20
2023-03-26T16:10:29.274Z,76.74
2023-03-26T16:13:24.937Z,76.89
2023-03-26T16:15:57.992Z,77.07
2023-03-26T16:18:35.950Z,77.57
2023-03-26T16:21:41.177Z,78.00
2023-03-26T16:24:30.510Z,78.16
2023-03-26T16:27:35.063Z,78.82
2023-03-26T16:30:30.336Z,78.34
2023-03-26T16:33:10.454Z,78.29
2023-03-26T16:36:18.418Z,78.39
2023-03-26T16:38:50.385Z,78.51
2023-03-26T16:41:20.417Z,78.81
2023-03-26T16:43:56.696Z,78.77
2023-03-26T16:46:38.384Z,78.85
2023-03-26T16:49:21.031Z,79.26
2023-03-26T16:52:09.665Z,78.85
2023-03-26T16:54:46.038Z,78.78
2023-03-26T16:57:30.558Z,79.04
2023-03-26T17:00:24.591Z,78.70
2023-03-26T17:03:00.013Z,78.66
2023-03-26T17:05:37.338Z,78.19
2023-03-26T17:08:19.099Z,78.01
2023-03-26T17:11:18.087Z,78.18
2023-03-26T17:13:52.637Z,78.27
2023-03-26T17:16:25.910Z,77.61
2023-03-26T17:19:04.311Z,77.18
2023-03-26T17:21:46.172Z,77.32
2023-03-26T17:24:28.698Z,77.48
2023-03-26T17:27:30.990Z,77.74
2023-03-26T17:30:11.213Z,77.80
2023-03-26T17:32:56.482Z,77.04
2023-03-26T17:35:40.636Z,77.02
2023-03-26T17:38:45.561Z,77.19
2023-03-26T17:41:36.766Z,77.31
2023-03-26T17:44:28.121Z,77.55
2023-03-26T17:46:58.272Z,78.06
2023-03-26T17:49:31.173Z,77.95
2023-03-26T17:52:02.115Z,77.75
2023-03-26T17:54:34.009Z,77.93
2023-03-26T17:57:07.798Z,78.03
2023-03-26T17:59:39.302Z,77.78
2023-03-26T18:02:15.374Z,77.48
2023-03-26T18:04:48.289Z,77.31
2023-03-26T18:07:49.949Z,77.60
2023-03-26T18:10:33.351Z,77.57
2023-03-26T18:13:20.504Z,77.73
2023-03-26T18:15:56.869Z,77.01
2023-03-26T18:18:32.778Z,76.90
2023-03-26T18:21:07.158Z,76.89
2023-03-26T18:23:38.908Z,76.92
2023-03-26T18:26:14.834Z,77.13
2023-03-26T18:28:46.454Z,77.33
2023-03-26T18:31:19.727Z,77.47
2023-03-26T18:33:49.956Z,77.99
2023-03-26T18:36:19.185Z,77.71
2023-03-26T18:38:48.809Z,77.83
2023-03-26T18:41:27.259Z,77.44
2023-03-26T18:44:01.985Z,77.55
2023-03-26T18:46:30.517Z,77.79
2023-03-26T18:48:59.990Z,77.97
2023-03-26T18:51:29.474Z,77.98
2023-03-26T18:54:01.844Z,78.23
2023-03-26T18:56:33.791Z,78.33
2023-03-26T18:59:05.875Z,78.19
2023-03-26T19:01:37.606Z,78.38
2023-03-26T19:04:09.355Z,77.77
2023-03-26T19:06:43.551Z,77.52
2023-03-26T19:09:30.456Z,77.51
2023-03-26T19:12:06.897Z,77.40
2023-03-26T19:14:52.045Z,76.93
2023-03-26T19:17:20.314Z,76.30
2023-03-26T19:19:50.666Z,76.18
2023-03-26T19:22:20.564Z,76.67
2023-03-26T19:24:48.944Z,76.83
2023-03-26T19:27:17.125Z,77.29
2023-03-26T19:29:47.769Z,77.10
2023-03-26T19:32:19.122Z,77.22
2023-03-26T19:34:49.289Z,76.67
2023-03-26T19:37:23.022Z,77.01
2023-03-26T19:39:52.878Z,76.98
2023-03-26T19:42:26.672Z,76.78
2023-03-26T19:44:59.409Z,76.88
2023-03-26T19:47:46.083Z,76.67
2023-03-26T19:50:26.092Z,76.43
2023-03-26T19:53:17.674Z,76.61
2023-03-26T19:55:57.404Z,76.72
2023-03-26T19:58:27.209Z,76.38
2023-03-26T20:00:57.126Z,76.95
2023-03-26T20:03:29.587Z,76.98
2023-03-26T20:05:58.081Z,76.79
2023-03-26T20:08:27.941Z,76.79
2023-03-26T20:10:58.503Z,76.69
2023-03-26T20:13:27.041Z,76.43
2023-03-26T20:16:05.541Z,75.97
2023-03-26T20:18:34.762Z,76.33
2023-03-26T20:21:03.122Z,76.47
2023-03-26T20:23:31.118Z,76.38
2023-03-26T20:25:59.163Z,76.34
2023-03-26T20:28:27.179Z,76.75
2023-03-26T20:30:56.992Z,76.45
2023-03-26T20:33:27.107Z,76.63
2023-03-26T20:35:57.130Z,76.77
2023-03-26T20:38:39.238Z,76.81
2023-03-26T20:41:10.770Z,77.40
2023-03-26T20:43:38.908Z,77.40
2023-03-26T20:46:11.573Z,77.29
2023-03-26T20:48:39.738Z,77.28
2023-03-26T20:51:07.963Z,76.34
2023-03-26T20:53:36.106Z,77.02
2023-03-26T20:56:04.375Z,76.84
2023-03-26T20:58:32.594Z,77.09
2023-03-26T21:01:02.602Z,76.61
2023-03-26T21:03:32.334Z,76.95
2023-03-26T21:06:01.970Z,76.61
2023-03-26T21:08:35.406Z,76.91
2023-03-26T21:11:04.042Z,77.08
2023-03-26T21:13:40.218Z,77.40
2023-03-26T21:16:11.079Z,77.44
2023-03-26T21:18:41.925Z,77.33
2023-03-26T21:21:28.078Z,77.41
2023-03-26T21:24:05.111Z,77.13
2023-03-26T21:26:41.572Z,77.16
2023-03-26T21:29:11.806Z,77.07
2023-03-26T21:31:40.488Z,76.78
2023-03-26T21:34:13.323Z,76.48
2023-03-26T21:36:42.181Z,76.93
2023-03-26T21:39:11.776Z,76.70
2023-03-26T21:41:45.818Z,76.51
2023-03-26T21:44:15.285Z,76.51
2023-03-26T21:46:44.243Z,76.25
2023-03-26T21:49:16.113Z,76.22
2023-03-26T21:51:45.049Z,76.07
2023-03-26T21:54:22.719Z,76.22
2023-03-26T21:57:01.951Z,76.39
2023-03-26T21:59:40.976Z,76.26
2023-03-26T22:02:18.553Z,76.28
2023-03-26T22:04:52.974Z,75.95
2023-03-26T22:07:27.548Z,75.81
2023-03-26T22:09:56.331Z,75.71
2023-03-26T22:12:25.638Z,75.71
2023-03-26T22:14:53.856Z,75.54
2023-03-26T22:17:23.249Z,75.52
2023-03-26T22:19:52.620Z,75.62
2023-03-26T22:22:22.119Z,75.67
2023-03-26T22:24:50.188Z,76.44
2023-03-26T22:27:18.443Z,76.20
2023-03-26T22:29:46.563Z,75.91
2023-03-26T22:32:14.612Z,75.97
2023-03-26T22:34:45.146Z,75.73
2023-03-26T22:37:16.222Z,75.05
2023-03-26T22:39:44.392Z,74.63
2023-03-26T22:42:12.382Z,75.46
2023-03-26T22:44:40.883Z,75.21
2023-03-26T22:47:09.603Z,75.46
2023-03-26T22:49:37.603Z,76.00
2023-03-26T22:52:06.058Z,75.98
2023-03-26T22:54:36.533Z,75.83
2023-03-26T22:57:04.872Z,75.92
2023-03-26T22:59:32.998Z,76.50
2023-03-26T23:02:01.341Z,76.28
2023-03-26T23:04:32.259Z,76.05
2023-03-26T23:07:00.850Z,75.69
2023-03-26T23:09:29.598Z,75.86
2023-03-26T23:11:59.066Z,76.08
2023-03-26T23:14:28.674Z,76.37
2023-03-26T23:16:57.201Z,76.01
2023-03-26T23:19:25.790Z,76.09
2023-03-26T23:21:53.826Z,76.52
2023-03-26T23:24:21.967Z,75.86
2023-03-26T23:26:51.275Z,76.14
2023-03-26T23:29:21.150Z,76.34
2023-03-26T23:31:49.426Z,76.41
2023-03-26T23:34:18.570Z,77.00
2023-03-26T23:36:47.021Z,76.88
2023-03-26T23:39:15.971Z,76.79
2023-03-26T23:41:44.105Z,76.82
2023-03-26T23:44:14.509Z,76.67
2023-03-26T23:46:44.256Z,76.54
2023-03-26T23:49:13.715Z,76.23
2023-03-26T23:51:42.177Z,76.81
2023-03-26T23:54:11.654Z,76.94
2023-03-26T23:56:39.751Z,77.32
2023-03-26T23:59:08.483Z,77.16
